sensor_id;sensor_type;location;lat;lon;timestamp;P1;durP1;ratioP1;P2;durP2;ratioP2
40170;SDS011;37650;52.790;18.268;2022-11-25T00:02:08;124.90;;;57.30;;
40170;SDS011;37650;52.790;18.268;2022-11-25T00:05:29;102.80;;;42.40;;
40170;SDS011;37650;52.790;18.268;2022-11-25T00:08:52;100.50;;;44.90;;
40170;SDS011;37650;52.790;18.268;2022-11-25T00:12:15;98.40;;;50.50;;
40170;SDS011;37650;52.790;18.268;2022-11-25T00:15:36;139.10;;;59.20;;
40170;SDS011;37650;52.790;18.268;2022-11-25T00:18:58;90.90;;;46.00;;
40170;SDS011;37650;52.790;18.268;2022-11-25T00:22:19;108.30;;;44.80;;
40170;SDS011;37650;52.790;18.268;2022-11-25T00:25:40;79.00;;;36.40;;
40170;SDS011;37650;52.790;18.268;2022-11-25T00:29:02;289.00;;;95.20;;
40170;SDS011;37650;52.790;18.268;2022-11-25T00:32:29;94.30;;;41.30;;
40170;SDS011;37650;52.790;18.268;2022-11-25T00:35:50;126.00;;;49.90;;
40170;SDS011;37650;52.790;18.268;2022-11-25T00:39:15;93.50;;;41.90;;
40170;SDS011;37650;52.790;18.268;2022-11-25T00:42:38;89.90;;;41.40;;
40170;SDS011;37650;52.790;18.268;2022-11-25T00:46:17;78.20;;;35.90;;
40170;SDS011;37650;52.790;18.268;2022-11-25T00:49:40;87.60;;;36.60;;
40170;SDS011;37650;52.790;18.268;2022-11-25T00:53:06;74.70;;;34.00;;
40170;SDS011;37650;52.790;18.268;2022-11-25T00:56:27;86.30;;;37.90;;
40170;SDS011;37650;52.790;18.268;2022-11-25T00:59:50;88.80;;;38.20;;
40170;SDS011;37650;52.790;18.268;2022-11-25T01:03:14;70.90;;;36.40;;
40170;SDS011;37650;52.790;18.268;2022-11-25T01:06:36;69.00;;;35.10;;
40170;SDS011;37650;52.790;18.268;2022-11-25T01:09:57;81.10;;;34.30;;
40170;SDS011;37650;52.790;18.268;2022-11-25T01:13:19;193.30;;;69.20;;
40170;SDS011;37650;52.790;18.268;2022-11-25T01:16:40;138.00;;;55.20;;
40170;SDS011;37650;52.790;18.268;2022-11-25T01:20:01;105.90;;;48.00;;
40170;SDS011;37650;52.790;18.268;2022-11-25T01:23:23;87.60;;;40.10;;
40170;SDS011;37650;52.790;18.268;2022-11-25T01:26:46;74.50;;;33.10;;
40170;SDS011;37650;52.790;18.268;2022-11-25T01:30:08;68.90;;;34.40;;
40170;SDS011;37650;52.790;18.268;2022-11-25T01:33:30;79.70;;;36.40;;
40170;SDS011;37650;52.790;18.268;2022-11-25T01:36:52;71.60;;;34.10;;
40170;SDS011;37650;52.790;18.268;2022-11-25T01:40:13;75.00;;;36.70;;
40170;SDS011;37650;52.790;18.268;2022-11-25T01:43:35;73.90;;;34.10;;
40170;SDS011;37650;52.790;18.268;2022-11-25T01:47:00;79.10;;;38.20;;
40170;SDS011;37650;52.790;18.268;2022-11-25T01:50:33;70.30;;;35.60;;
40170;SDS011;37650;52.790;18.268;2022-11-25T01:53:58;66.00;;;31.40;;
40170;SDS011;37650;52.790;18.268;2022-11-25T02:01:25;58.90;;;31.20;;
40170;SDS011;37650;52.790;18.268;2022-11-25T02:04:45;63.50;;;32.30;;
40170;SDS011;37650;52.790;18.268;2022-11-25T02:08:08;62.90;;;32.80;;
40170;SDS011;37650;52.790;18.268;2022-11-25T02:11:30;61.00;;;33.50;;
40170;SDS011;37650;52.790;18.268;2022-11-25T02:14:54;62.60;;;32.20;;
40170;SDS011;37650;52.790;18.268;2022-11-25T02:18:18;58.10;;;30.40;;
40170;SDS011;37650;52.790;18.268;2022-11-25T02:21:40;52.60;;;28.40;;
40170;SDS011;37650;52.790;18.268;2022-11-25T02:25:10;51.00;;;27.80;;
40170;SDS011;37650;52.790;18.268;2022-11-25T02:28:42;54.90;;;30.20;;
40170;SDS011;37650;52.790;18.268;2022-11-25T02:32:04;50.30;;;28.00;;
40170;SDS011;37650;52.790;18.268;2022-11-25T02:38:50;51.80;;;27.00;;
40170;SDS011;37650;52.790;18.268;2022-11-25T02:42:14;52.60;;;29.70;;
40170;SDS011;37650;52.790;18.268;2022-11-25T02:46:01;48.40;;;26.60;;
40170;SDS011;37650;52.790;18.268;2022-11-25T02:49:40;46.00;;;25.30;;
40170;SDS011;37650;52.790;18.268;2022-11-25T02:53:02;52.90;;;28.30;;
40170;SDS011;37650;52.790;18.268;2022-11-25T02:56:25;47.80;;;27.80;;
40170;SDS011;37650;52.790;18.268;2022-11-25T02:59:51;45.40;;;26.50;;
40170;SDS011;37650;52.790;18.268;2022-11-25T03:03:12;50.10;;;27.10;;
40170;SDS011;37650;52.790;18.268;2022-11-25T03:06:34;46.20;;;26.50;;
40170;SDS011;37650;52.790;18.268;2022-11-25T03:09:55;49.60;;;29.50;;
40170;SDS011;37650;52.790;18.268;2022-11-25T03:13:17;46.60;;;27.10;;
40170;SDS011;37650;52.790;18.268;2022-11-25T03:16:38;46.90;;;25.80;;
40170;SDS011;37650;52.790;18.268;2022-11-25T03:19:59;40.30;;;25.40;;
40170;SDS011;37650;52.790;18.268;2022-11-25T03:23:21;42.20;;;26.30;;
40170;SDS011;37650;52.790;18.268;2022-11-25T03:26:43;41.50;;;24.50;;
40170;SDS011;37650;52.790;18.268;2022-11-25T03:30:05;45.90;;;27.50;;
40170;SDS011;37650;52.790;18.268;2022-11-25T03:33:28;48.10;;;27.80;;
40170;SDS011;37650;52.790;18.268;2022-11-25T03:36:50;48.90;;;26.60;;
40170;SDS011;37650;52.790;18.268;2022-11-25T03:40:12;42.40;;;26.90;;
40170;SDS011;37650;52.790;18.268;2022-11-25T03:43:34;41.70;;;24.90;;
40170;SDS011;37650;52.790;18.268;2022-11-25T03:46:56;40.50;;;24.90;;
40170;SDS011;37650;52.790;18.268;2022-11-25T03:50:17;39.40;;;23.70;;
40170;SDS011;37650;52.790;18.268;2022-11-25T03:53:39;43.40;;;26.80;;
40170;SDS011;37650;52.790;18.268;2022-11-25T03:57:01;41.20;;;25.60;;
40170;SDS011;37650;52.790;18.268;2022-11-25T04:00:24;45.90;;;26.50;;
40170;SDS011;37650;52.790;18.268;2022-11-25T04:03:48;42.20;;;24.90;;
40170;SDS011;37650;52.790;18.268;2022-11-25T04:07:09;42.50;;;25.20;;
40170;SDS011;37650;52.790;18.268;2022-11-25T04:10:31;45.90;;;26.80;;
40170;SDS011;37650;52.790;18.268;2022-11-25T04:13:52;40.60;;;26.30;;
40170;SDS011;37650;52.790;18.268;2022-11-25T04:17:14;45.50;;;27.60;;
40170;SDS011;37650;52.790;18.268;2022-11-25T04:20:35;46.00;;;28.10;;
40170;SDS011;37650;52.790;18.268;2022-11-25T04:23:58;46.00;;;28.50;;
40170;SDS011;37650;52.790;18.268;2022-11-25T04:27:19;47.50;;;27.90;;
40170;SDS011;37650;52.790;18.268;2022-11-25T04:30:41;46.80;;;28.20;;
40170;SDS011;37650;52.790;18.268;2022-11-25T04:34:03;43.60;;;28.50;;
40170;SDS011;37650;52.790;18.268;2022-11-25T04:37:25;42.40;;;28.20;;
40170;SDS011;37650;52.790;18.268;2022-11-25T04:40:46;46.50;;;28.60;;
40170;SDS011;37650;52.790;18.268;2022-11-25T04:44:10;47.70;;;28.80;;
40170;SDS011;37650;52.790;18.268;2022-11-25T04:47:32;47.80;;;30.00;;
40170;SDS011;37650;52.790;18.268;2022-11-25T04:50:54;48.50;;;31.00;;
40170;SDS011;37650;52.790;18.268;2022-11-25T04:54:16;46.00;;;29.30;;
40170;SDS011;37650;52.790;18.268;2022-11-25T04:57:38;43.70;;;27.50;;
40170;SDS011;37650;52.790;18.268;2022-11-25T05:01:00;46.00;;;30.30;;
40170;SDS011;37650;52.790;18.268;2022-11-25T05:07:43;46.60;;;29.20;;
40170;SDS011;37650;52.790;18.268;2022-11-25T05:11:04;46.10;;;29.00;;
40170;SDS011;37650;52.790;18.268;2022-11-25T05:14:26;47.80;;;28.00;;
40170;SDS011;37650;52.790;18.268;2022-11-25T05:17:47;43.00;;;28.00;;
40170;SDS011;37650;52.790;18.268;2022-11-25T05:21:11;45.20;;;27.70;;
40170;SDS011;37650;52.790;18.268;2022-11-25T05:27:56;46.40;;;29.40;;
40170;SDS011;37650;52.790;18.268;2022-11-25T05:31:17;49.50;;;30.70;;
40170;SDS011;37650;52.790;18.268;2022-11-25T05:34:38;53.40;;;30.80;;
40170;SDS011;37650;52.790;18.268;2022-11-25T05:38:01;49.80;;;30.90;;
40170;SDS011;37650;52.790;18.268;2022-11-25T05:41:24;48.70;;;30.40;;
40170;SDS011;37650;52.790;18.268;2022-11-25T05:44:46;48.30;;;31.80;;
40170;SDS011;37650;52.790;18.268;2022-11-25T05:48:07;57.50;;;34.80;;
40170;SDS011;37650;52.790;18.268;2022-11-25T05:51:29;66.90;;;40.60;;
40170;SDS011;37650;52.790;18.268;2022-11-25T05:54:53;74.10;;;38.90;;
40170;SDS011;37650;52.790;18.268;2022-11-25T05:58:14;71.50;;;40.70;;
40170;SDS011;37650;52.790;18.268;2022-11-25T06:01:35;61.60;;;35.40;;
40170;SDS011;37650;52.790;18.268;2022-11-25T06:04:57;63.50;;;32.70;;
40170;SDS011;37650;52.790;18.268;2022-11-25T06:08:18;59.40;;;34.20;;
40170;SDS011;37650;52.790;18.268;2022-11-25T06:11:41;53.80;;;32.60;;
40170;SDS011;37650;52.790;18.268;2022-11-25T06:15:02;61.10;;;39.40;;
40170;SDS011;37650;52.790;18.268;2022-11-25T06:18:24;58.50;;;39.00;;
40170;SDS011;37650;52.790;18.268;2022-11-25T06:21:46;71.00;;;36.90;;
40170;SDS011;37650;52.790;18.268;2022-11-25T06:25:08;77.70;;;37.70;;
40170;SDS011;37650;52.790;18.268;2022-11-25T06:28:30;70.10;;;42.00;;
40170;SDS011;37650;52.790;18.268;2022-11-25T06:31:52;64.00;;;36.60;;
40170;SDS011;37650;52.790;18.268;2022-11-25T06:35:34;63.30;;;38.90;;
40170;SDS011;37650;52.790;18.268;2022-11-25T06:38:56;73.80;;;38.60;;
40170;SDS011;37650;52.790;18.268;2022-11-25T06:42:17;63.00;;;34.40;;
40170;SDS011;37650;52.790;18.268;2022-11-25T06:45:38;54.30;;;32.80;;
40170;SDS011;37650;52.790;18.268;2022-11-25T06:48:59;57.90;;;33.80;;
40170;SDS011;37650;52.790;18.268;2022-11-25T06:52:20;74.70;;;38.00;;
40170;SDS011;37650;52.790;18.268;2022-11-25T06:55:42;79.60;;;41.90;;
40170;SDS011;37650;52.790;18.268;2022-11-25T06:59:03;73.50;;;43.20;;
40170;SDS011;37650;52.790;18.268;2022-11-25T07:02:24;102.00;;;54.70;;
40170;SDS011;37650;52.790;18.268;2022-11-25T07:05:45;96.80;;;52.30;;
40170;SDS011;37650;52.790;18.268;2022-11-25T07:09:06;67.30;;;36.60;;
40170;SDS011;37650;52.790;18.268;2022-11-25T07:12:28;67.90;;;41.30;;
40170;SDS011;37650;52.790;18.268;2022-11-25T07:15:50;71.50;;;35.60;;
40170;SDS011;37650;52.790;18.268;2022-11-25T07:19:12;59.00;;;35.00;;
40170;SDS011;37650;52.790;18.268;2022-11-25T07:22:35;65.20;;;34.90;;
40170;SDS011;37650;52.790;18.268;2022-11-25T07:26:07;61.30;;;31.30;;
40170;SDS011;37650;52.790;18.268;2022-11-25T07:29:33;53.90;;;31.50;;
40170;SDS011;37650;52.790;18.268;2022-11-25T07:36:16;67.20;;;32.30;;
40170;SDS011;37650;52.790;18.268;2022-11-25T07:39:37;55.40;;;32.80;;
40170;SDS011;37650;52.790;18.268;2022-11-25T07:42:59;46.50;;;28.40;;
40170;SDS011;37650;52.790;18.268;2022-11-25T07:49:50;52.30;;;28.40;;
40170;SDS011;37650;52.790;18.268;2022-11-25T07:53:11;84.20;;;49.60;;
40170;SDS011;37650;52.790;18.268;2022-11-25T07:56:33;101.90;;;72.40;;
40170;SDS011;37650;52.790;18.268;2022-11-25T07:59:56;62.60;;;38.50;;
40170;SDS011;37650;52.790;18.268;2022-11-25T08:03:17;83.10;;;43.40;;
40170;SDS011;37650;52.790;18.268;2022-11-25T08:06:39;70.50;;;39.60;;
40170;SDS011;37650;52.790;18.268;2022-11-25T08:10:05;48.40;;;29.60;;
40170;SDS011;37650;52.790;18.268;2022-11-25T08:13:27;46.70;;;28.50;;
40170;SDS011;37650;52.790;18.268;2022-11-25T08:16:48;45.90;;;28.20;;
40170;SDS011;37650;52.790;18.268;2022-11-25T08:20:09;45.90;;;27.40;;
40170;SDS011;37650;52.790;18.268;2022-11-25T08:23:30;51.70;;;31.20;;
40170;SDS011;37650;52.790;18.268;2022-11-25T08:26:53;87.70;;;32.40;;
40170;SDS011;37650;52.790;18.268;2022-11-25T08:30:16;60.00;;;31.90;;
40170;SDS011;37650;52.790;18.268;2022-11-25T08:33:38;65.70;;;38.70;;
40170;SDS011;37650;52.790;18.268;2022-11-25T08:36:59;70.00;;;39.50;;
40170;SDS011;37650;52.790;18.268;2022-11-25T08:40:21;70.10;;;38.30;;
40170;SDS011;37650;52.790;18.268;2022-11-25T08:43:42;56.80;;;33.00;;
40170;SDS011;37650;52.790;18.268;2022-11-25T08:47:03;51.10;;;28.20;;
40170;SDS011;37650;52.790;18.268;2022-11-25T08:50:24;51.00;;;30.50;;
40170;SDS011;37650;52.790;18.268;2022-11-25T08:53:45;63.00;;;33.80;;
40170;SDS011;37650;52.790;18.268;2022-11-25T08:57:07;58.80;;;32.20;;
40170;SDS011;37650;52.790;18.268;2022-11-25T09:00:29;57.10;;;32.70;;
40170;SDS011;37650;52.790;18.268;2022-11-25T09:03:51;51.40;;;29.80;;
40170;SDS011;37650;52.790;18.268;2022-11-25T09:07:14;55.40;;;29.90;;
40170;SDS011;37650;52.790;18.268;2022-11-25T09:10:36;59.90;;;30.50;;
40170;SDS011;37650;52.790;18.268;2022-11-25T09:13:58;57.30;;;30.10;;
40170;SDS011;37650;52.790;18.268;2022-11-25T09:17:19;60.90;;;32.60;;
40170;SDS011;37650;52.790;18.268;2022-11-25T09:20:41;57.00;;;29.70;;
40170;SDS011;37650;52.790;18.268;2022-11-25T09:24:02;68.90;;;33.40;;
40170;SDS011;37650;52.790;18.268;2022-11-25T09:27:23;64.60;;;33.10;;
40170;SDS011;37650;52.790;18.268;2022-11-25T09:30:45;62.80;;;29.50;;
40170;SDS011;37650;52.790;18.268;2022-11-25T09:34:06;69.00;;;33.40;;
40170;SDS011;37650;52.790;18.268;2022-11-25T09:37:29;62.50;;;31.90;;
40170;SDS011;37650;52.790;18.268;2022-11-25T09:40:52;72.30;;;36.70;;
40170;SDS011;37650;52.790;18.268;2022-11-25T09:44:59;84.40;;;36.00;;
40170;SDS011;37650;52.790;18.268;2022-11-25T09:52:55;62.50;;;30.20;;
40170;SDS011;37650;52.790;18.268;2022-11-25T09:56:42;77.00;;;38.20;;
40170;SDS011;37650;52.790;18.268;2022-11-25T10:00:17;92.80;;;38.40;;
40170;SDS011;37650;52.790;18.268;2022-11-25T10:03:47;74.70;;;37.10;;
40170;SDS011;37650;52.790;18.268;2022-11-25T10:07:17;86.40;;;38.90;;
40170;SDS011;37650;52.790;18.268;2022-11-25T10:10:52;80.20;;;37.90;;
40170;SDS011;37650;52.790;18.268;2022-11-25T10:18:12;72.60;;;34.40;;
40170;SDS011;37650;52.790;18.268;2022-11-25T10:21:37;85.30;;;39.10;;
40170;SDS011;37650;52.790;18.268;2022-11-25T10:25:21;81.80;;;37.20;;
40170;SDS011;37650;52.790;18.268;2022-11-25T10:28:47;82.90;;;38.30;;
40170;SDS011;37650;52.790;18.268;2022-11-25T10:32:25;78.00;;;38.20;;
40170;SDS011;37650;52.790;18.268;2022-11-25T10:39:23;80.00;;;40.10;;
40170;SDS011;37650;52.790;18.268;2022-11-25T10:42:47;82.10;;;38.90;;
40170;SDS011;37650;52.790;18.268;2022-11-25T10:46:10;93.30;;;42.90;;
40170;SDS011;37650;52.790;18.268;2022-11-25T10:50:21;94.70;;;46.60;;
40170;SDS011;37650;52.790;18.268;2022-11-25T10:57:31;88.40;;;42.70;;
40170;SDS011;37650;52.790;18.268;2022-11-25T11:01:06;78.40;;;34.80;;
40170;SDS011;37650;52.790;18.268;2022-11-25T11:05:15;76.40;;;37.20;;
40170;SDS011;37650;52.790;18.268;2022-11-25T11:08:38;72.40;;;34.60;;
40170;SDS011;37650;52.790;18.268;2022-11-25T11:12:11;63.30;;;32.90;;
40170;SDS011;37650;52.790;18.268;2022-11-25T11:19:00;73.80;;;34.80;;
40170;SDS011;37650;52.790;18.268;2022-11-25T11:22:22;100.00;;;48.10;;
40170;SDS011;37650;52.790;18.268;2022-11-25T11:29:21;76.80;;;37.90;;
40170;SDS011;37650;52.790;18.268;2022-11-25T11:32:43;70.90;;;29.90;;
40170;SDS011;37650;52.790;18.268;2022-11-25T11:43:58;71.70;;;35.20;;
40170;SDS011;37650;52.790;18.268;2022-11-25T11:47:48;67.70;;;33.50;;
40170;SDS011;37650;52.790;18.268;2022-11-25T11:55:00;66.60;;;35.10;;
40170;SDS011;37650;52.790;18.268;2022-11-25T11:58:55;64.30;;;33.50;;
40170;SDS011;37650;52.790;18.268;2022-11-25T12:06:12;56.90;;;27.80;;
40170;SDS011;37650;52.790;18.268;2022-11-25T12:16:37;60.40;;;28.80;;
40170;SDS011;37650;52.790;18.268;2022-11-25T12:20:40;66.10;;;31.00;;
40170;SDS011;37650;52.790;18.268;2022-11-25T12:24:00;61.60;;;31.40;;
40170;SDS011;37650;52.790;18.268;2022-11-25T12:27:28;68.10;;;34.00;;
40170;SDS011;37650;52.790;18.268;2022-11-25T12:31:00;130.70;;;68.00;;
40170;SDS011;37650;52.790;18.268;2022-11-25T12:34:49;143.80;;;81.30;;
40170;SDS011;37650;52.790;18.268;2022-11-25T12:42:00;112.30;;;52.10;;
40170;SDS011;37650;52.790;18.268;2022-11-25T12:45:25;118.90;;;51.40;;
40170;SDS011;37650;52.790;18.268;2022-11-25T12:48:47;107.30;;;47.80;;
40170;SDS011;37650;52.790;18.268;2022-11-25T12:55:41;75.10;;;38.70;;
40170;SDS011;37650;52.790;18.268;2022-11-25T13:06:31;63.60;;;31.30;;
40170;SDS011;37650;52.790;18.268;2022-11-25T13:18:00;63.60;;;33.90;;
40170;SDS011;37650;52.790;18.268;2022-11-25T13:21:24;72.50;;;40.00;;
40170;SDS011;37650;52.790;18.268;2022-11-25T13:24:47;76.70;;;39.60;;
40170;SDS011;37650;52.790;18.268;2022-11-25T13:42:14;90.60;;;41.20;;
40170;SDS011;37650;52.790;18.268;2022-11-25T13:46:00;73.20;;;41.10;;
40170;SDS011;37650;52.790;18.268;2022-11-25T13:49:32;78.20;;;41.40;;
40170;SDS011;37650;52.790;18.268;2022-11-25T13:53:05;77.60;;;40.40;;
40170;SDS011;37650;52.790;18.268;2022-11-25T13:56:39;77.60;;;39.70;;
40170;SDS011;37650;52.790;18.268;2022-11-25T14:00:05;73.60;;;38.90;;
40170;SDS011;37650;52.790;18.268;2022-11-25T14:07:04;72.70;;;37.00;;
40170;SDS011;37650;52.790;18.268;2022-11-25T14:10:52;110.20;;;54.80;;
40170;SDS011;37650;52.790;18.268;2022-11-25T14:18:42;79.90;;;40.30;;
40170;SDS011;37650;52.790;18.268;2022-11-25T14:25:15;74.50;;;38.90;;
40170;SDS011;37650;52.790;18.268;2022-11-25T14:32:29;81.40;;;44.30;;
40170;SDS011;37650;52.790;18.268;2022-11-25T14:35:59;84.20;;;43.90;;
40170;SDS011;37650;52.790;18.268;2022-11-25T14:39:30;80.60;;;40.70;;
40170;SDS011;37650;52.790;18.268;2022-11-25T14:43:03;74.00;;;41.00;;
40170;SDS011;37650;52.790;18.268;2022-11-25T14:46:27;74.50;;;37.20;;
40170;SDS011;37650;52.790;18.268;2022-11-25T14:49:50;73.90;;;39.00;;
40170;SDS011;37650;52.790;18.268;2022-11-25T14:53:12;73.30;;;41.00;;
40170;SDS011;37650;52.790;18.268;2022-11-25T14:56:35;76.40;;;41.10;;
40170;SDS011;37650;52.790;18.268;2022-11-25T15:00:01;73.30;;;37.90;;
40170;SDS011;37650;52.790;18.268;2022-11-25T15:03:25;71.50;;;38.30;;
40170;SDS011;37650;52.790;18.268;2022-11-25T15:06:48;74.70;;;39.50;;
40170;SDS011;37650;52.790;18.268;2022-11-25T15:14:22;66.80;;;36.00;;
40170;SDS011;37650;52.790;18.268;2022-11-25T15:17:44;78.70;;;37.20;;
40170;SDS011;37650;52.790;18.268;2022-11-25T15:21:06;76.90;;;38.30;;
40170;SDS011;37650;52.790;18.268;2022-11-25T15:24:33;68.20;;;34.90;;
40170;SDS011;37650;52.790;18.268;2022-11-25T15:28:01;64.60;;;34.20;;
40170;SDS011;37650;52.790;18.268;2022-11-25T15:31:27;67.10;;;36.40;;
40170;SDS011;37650;52.790;18.268;2022-11-25T15:34:51;77.30;;;42.90;;
40170;SDS011;37650;52.790;18.268;2022-11-25T15:45:43;78.40;;;38.80;;
40170;SDS011;37650;52.790;18.268;2022-11-25T15:49:06;90.50;;;44.70;;
40170;SDS011;37650;52.790;18.268;2022-11-25T15:52:30;75.20;;;38.30;;
40170;SDS011;37650;52.790;18.268;2022-11-25T15:55:57;82.50;;;39.80;;
40170;SDS011;37650;52.790;18.268;2022-11-25T15:59:40;80.30;;;37.80;;
40170;SDS011;37650;52.790;18.268;2022-11-25T16:03:17;84.60;;;39.30;;
40170;SDS011;37650;52.790;18.268;2022-11-25T16:06:55;75.50;;;37.40;;
40170;SDS011;37650;52.790;18.268;2022-11-25T16:10:30;80.50;;;41.60;;
40170;SDS011;37650;52.790;18.268;2022-11-25T16:17:48;80.60;;;37.80;;
40170;SDS011;37650;52.790;18.268;2022-11-25T16:21:16;73.80;;;34.40;;
40170;SDS011;37650;52.790;18.268;2022-11-25T16:28:16;74.80;;;35.20;;
40170;SDS011;37650;52.790;18.268;2022-11-25T16:31:42;67.70;;;34.00;;
40170;SDS011;37650;52.790;18.268;2022-11-25T16:35:11;76.70;;;37.50;;
40170;SDS011;37650;52.790;18.268;2022-11-25T16:38:35;63.80;;;32.30;;
40170;SDS011;37650;52.790;18.268;2022-11-25T16:41:57;76.60;;;38.90;;
40170;SDS011;37650;52.790;18.268;2022-11-25T16:45:23;82.30;;;42.80;;
40170;SDS011;37650;52.790;18.268;2022-11-25T16:48:46;56.00;;;29.90;;
40170;SDS011;37650;52.790;18.268;2022-11-25T16:52:08;70.30;;;36.60;;
40170;SDS011;37650;52.790;18.268;2022-11-25T16:55:29;64.80;;;35.30;;
40170;SDS011;37650;52.790;18.268;2022-11-25T16:58:51;60.70;;;33.00;;
40170;SDS011;37650;52.790;18.268;2022-11-25T17:02:20;73.10;;;36.40;;
40170;SDS011;37650;52.790;18.268;2022-11-25T17:05:42;76.50;;;38.10;;
40170;SDS011;37650;52.790;18.268;2022-11-25T17:09:05;89.80;;;40.80;;
40170;SDS011;37650;52.790;18.268;2022-11-25T17:12:29;79.60;;;37.30;;
40170;SDS011;37650;52.790;18.268;2022-11-25T17:15:52;71.90;;;33.90;;
40170;SDS011;37650;52.790;18.268;2022-11-25T17:19:14;72.70;;;35.70;;
40170;SDS011;37650;52.790;18.268;2022-11-25T17:22:36;67.30;;;34.10;;
40170;SDS011;37650;52.790;18.268;2022-11-25T17:25:57;65.80;;;33.30;;
40170;SDS011;37650;52.790;18.268;2022-11-25T17:29:19;63.20;;;32.00;;
40170;SDS011;37650;52.790;18.268;2022-11-25T17:32:45;68.00;;;32.80;;
40170;SDS011;37650;52.790;18.268;2022-11-25T17:39:32;73.00;;;35.70;;
40170;SDS011;37650;52.790;18.268;2022-11-25T17:42:52;69.60;;;33.20;;
40170;SDS011;37650;52.790;18.268;2022-11-25T17:46:15;67.30;;;33.40;;
40170;SDS011;37650;52.790;18.268;2022-11-25T17:49:36;75.50;;;35.40;;
40170;SDS011;37650;52.790;18.268;2022-11-25T17:52:58;62.60;;;31.70;;
40170;SDS011;37650;52.790;18.268;2022-11-25T17:56:27;72.40;;;36.40;;
40170;SDS011;37650;52.790;18.268;2022-11-25T17:59:49;66.40;;;34.70;;
40170;SDS011;37650;52.790;18.268;2022-11-25T18:03:14;70.40;;;33.10;;
40170;SDS011;37650;52.790;18.268;2022-11-25T18:06:36;66.30;;;33.70;;
40170;SDS011;37650;52.790;18.268;2022-11-25T18:09:57;69.80;;;32.30;;
40170;SDS011;37650;52.790;18.268;2022-11-25T18:13:18;65.50;;;34.40;;
40170;SDS011;37650;52.790;18.268;2022-11-25T18:16:39;74.90;;;39.80;;
40170;SDS011;37650;52.790;18.268;2022-11-25T18:20:22;67.60;;;32.30;;
40170;SDS011;37650;52.790;18.268;2022-11-25T18:27:08;71.40;;;35.30;;
40170;SDS011;37650;52.790;18.268;2022-11-25T18:30:45;73.50;;;34.80;;
40170;SDS011;37650;52.790;18.268;2022-11-25T18:34:12;80.60;;;37.80;;
40170;SDS011;37650;52.790;18.268;2022-11-25T18:37:35;78.60;;;35.70;;
40170;SDS011;37650;52.790;18.268;2022-11-25T18:40:56;71.40;;;37.70;;
40170;SDS011;37650;52.790;18.268;2022-11-25T18:44:22;67.00;;;34.60;;
40170;SDS011;37650;52.790;18.268;2022-11-25T18:47:46;80.80;;;41.50;;
40170;SDS011;37650;52.790;18.268;2022-11-25T18:51:09;65.70;;;32.80;;
40170;SDS011;37650;52.790;18.268;2022-11-25T18:54:32;70.60;;;33.60;;
40170;SDS011;37650;52.790;18.268;2022-11-25T18:57:55;73.80;;;36.60;;
40170;SDS011;37650;52.790;18.268;2022-11-25T19:01:17;83.90;;;41.90;;
40170;SDS011;37650;52.790;18.268;2022-11-25T19:04:43;73.60;;;33.30;;
40170;SDS011;37650;52.790;18.268;2022-11-25T19:08:06;67.20;;;31.50;;
40170;SDS011;37650;52.790;18.268;2022-11-25T19:11:33;79.70;;;34.20;;
40170;SDS011;37650;52.790;18.268;2022-11-25T19:14:58;86.00;;;34.70;;
40170;SDS011;37650;52.790;18.268;2022-11-25T19:18:22;61.70;;;28.80;;
40170;SDS011;37650;52.790;18.268;2022-11-25T19:21:46;58.80;;;27.10;;
40170;SDS011;37650;52.790;18.268;2022-11-25T19:25:09;49.00;;;25.00;;
40170;SDS011;37650;52.790;18.268;2022-11-25T19:28:32;46.10;;;23.50;;
40170;SDS011;37650;52.790;18.268;2022-11-25T19:31:55;52.60;;;26.80;;
40170;SDS011;37650;52.790;18.268;2022-11-25T19:35:21;62.50;;;29.00;;
40170;SDS011;37650;52.790;18.268;2022-11-25T19:38:47;63.00;;;28.70;;
40170;SDS011;37650;52.790;18.268;2022-11-25T19:42:09;63.30;;;28.70;;
40170;SDS011;37650;52.790;18.268;2022-11-25T19:45:30;63.90;;;29.70;;
40170;SDS011;37650;52.790;18.268;2022-11-25T19:48:53;66.70;;;30.90;;
40170;SDS011;37650;52.790;18.268;2022-11-25T19:52:21;72.50;;;30.70;;
40170;SDS011;37650;52.790;18.268;2022-11-25T19:55:48;66.10;;;29.20;;
40170;SDS011;37650;52.790;18.268;2022-11-25T19:59:09;71.10;;;29.10;;
40170;SDS011;37650;52.790;18.268;2022-11-25T20:02:32;61.80;;;26.60;;
40170;SDS011;37650;52.790;18.268;2022-11-25T20:05:55;65.30;;;32.30;;
40170;SDS011;37650;52.790;18.268;2022-11-25T20:09:17;70.90;;;31.30;;
40170;SDS011;37650;52.790;18.268;2022-11-25T20:12:39;74.40;;;34.40;;
40170;SDS011;37650;52.790;18.268;2022-11-25T20:16:02;71.60;;;33.20;;
40170;SDS011;37650;52.790;18.268;2022-11-25T20:19:26;72.80;;;33.90;;
40170;SDS011;37650;52.790;18.268;2022-11-25T20:22:57;70.40;;;30.00;;
40170;SDS011;37650;52.790;18.268;2022-11-25T20:26:27;76.70;;;33.10;;
40170;SDS011;37650;52.790;18.268;2022-11-25T20:29:52;76.20;;;35.10;;
40170;SDS011;37650;52.790;18.268;2022-11-25T20:33:22;74.90;;;34.60;;
40170;SDS011;37650;52.790;18.268;2022-11-25T20:36:45;74.30;;;33.70;;
40170;SDS011;37650;52.790;18.268;2022-11-25T20:40:12;72.70;;;31.50;;
40170;SDS011;37650;52.790;18.268;2022-11-25T20:43:39;71.60;;;33.80;;
40170;SDS011;37650;52.790;18.268;2022-11-25T20:47:08;64.30;;;27.80;;
40170;SDS011;37650;52.790;18.268;2022-11-25T20:50:34;73.20;;;33.40;;
40170;SDS011;37650;52.790;18.268;2022-11-25T20:53:56;74.80;;;34.10;;
40170;SDS011;37650;52.790;18.268;2022-11-25T20:57:24;78.10;;;34.20;;
40170;SDS011;37650;52.790;18.268;2022-11-25T21:00:46;73.10;;;31.90;;
40170;SDS011;37650;52.790;18.268;2022-11-25T21:04:09;71.30;;;29.50;;
40170;SDS011;37650;52.790;18.268;2022-11-25T21:07:31;65.90;;;29.40;;
40170;SDS011;37650;52.790;18.268;2022-11-25T21:10:53;65.00;;;30.40;;
40170;SDS011;37650;52.790;18.268;2022-11-25T21:14:18;68.80;;;31.90;;
40170;SDS011;37650;52.790;18.268;2022-11-25T21:17:41;66.10;;;28.90;;
40170;SDS011;37650;52.790;18.268;2022-11-25T21:21:03;70.70;;;31.70;;
40170;SDS011;37650;52.790;18.268;2022-11-25T21:24:35;69.40;;;30.90;;
40170;SDS011;37650;52.790;18.268;2022-11-25T21:28:01;69.10;;;28.40;;
40170;SDS011;37650;52.790;18.268;2022-11-25T21:31:25;60.00;;;26.00;;
40170;SDS011;37650;52.790;18.268;2022-11-25T21:34:47;53.00;;;25.30;;
40170;SDS011;37650;52.790;18.268;2022-11-25T21:38:17;58.30;;;26.60;;
40170;SDS011;37650;52.790;18.268;2022-11-25T21:41:44;53.80;;;26.40;;
40170;SDS011;37650;52.790;18.268;2022-11-25T21:45:08;63.30;;;28.00;;
40170;SDS011;37650;52.790;18.268;2022-11-25T21:48:38;56.40;;;26.30;;
40170;SDS011;37650;52.790;18.268;2022-11-25T21:52:01;66.30;;;28.20;;
40170;SDS011;37650;52.790;18.268;2022-11-25T21:55:24;66.50;;;29.00;;
40170;SDS011;37650;52.790;18.268;2022-11-25T21:58:45;54.00;;;26.00;;
40170;SDS011;37650;52.790;18.268;2022-11-25T22:02:14;59.30;;;27.00;;
40170;SDS011;37650;52.790;18.268;2022-11-25T22:05:38;54.30;;;25.60;;